Alder, Washington
Current Conditions -  °F | °C
As of 12:58 PM on Thursday 23 Oct 2014 (Local Time) from KGRF Reporting Station
Drizzle Drizzle  
Wind Chill: 14°   Ceiling: Unl
Heat Index: 14°   Visibility: 10mi
Dew Point: 10°   Wind: 12mph
Humidity: 80%   Direction: 170°S
Pressure: 29.83"   Gusts: NA
Location:  46.8687°N, 122.208°W
Report Text: KGRF 231958Z AUTO 17010KT 10SM DZ FEW160 14/10 A2983 RMK AO2 SLP105 P0000 T01370104 $
Loading
Personal Weather Stations






























Interactive Weather Map
Tropical Storm Tracking
New forecast layout! Learn more

10-Day Weather Forecast

Advertisements
Track Severe Weather on mobile